createdAt,value
2022-10-26T00:00:20.436Z,87.55
2022-10-26T00:01:20.458Z,88.26
2022-10-26T00:02:20.566Z,88.36
2022-10-26T00:03:20.407Z,88.36
2022-10-26T00:04:20.402Z,88.16
2022-10-26T00:05:20.422Z,88.16
2022-10-26T00:06:20.398Z,88.16
2022-10-26T00:07:20.363Z,88.46
2022-10-26T00:08:20.364Z,88.26
2022-10-26T00:09:20.363Z,88.26
2022-10-26T00:10:20.333Z,88.36
2022-10-26T00:11:20.328Z,88.46
2022-10-26T00:12:20.310Z,87.85
2022-10-26T00:13:20.298Z,87.55
2022-10-26T00:14:20.281Z,88.16
2022-10-26T00:15:20.278Z,87.75
2022-10-26T00:16:20.294Z,87.35
2022-10-26T00:17:20.250Z,88.57
2022-10-26T00:18:20.243Z,88.26
2022-10-26T00:19:20.286Z,88.26
2022-10-26T00:20:20.224Z,87.55
2022-10-26T00:21:20.215Z,87.85
2022-10-26T00:22:20.216Z,87.85
2022-10-26T00:23:20.188Z,88.26
2022-10-26T00:24:20.175Z,88.26
2022-10-26T00:25:20.181Z,88.26
2022-10-26T00:26:20.153Z,88.36
2022-10-26T00:27:20.155Z,87.85
2022-10-26T00:28:20.147Z,87.65
2022-10-26T00:29:20.124Z,87.55
2022-10-26T00:30:20.114Z,87.96
2022-10-26T00:31:20.090Z,87.45
2022-10-26T00:32:20.107Z,87.65
2022-10-26T00:33:20.072Z,87.96
2022-10-26T00:34:20.060Z,87.45
2022-10-26T00:35:24.329Z,87.85
2022-10-26T00:36:21.042Z,88.16
2022-10-26T00:37:20.028Z,88.06
2022-10-26T00:38:20.050Z,87.96
2022-10-26T00:39:20.027Z,87.96
2022-10-26T00:40:19.999Z,87.45
2022-10-26T00:41:20.009Z,87.49
2022-10-26T00:42:19.979Z,87.18
2022-10-26T00:43:19.977Z,88.20
2022-10-26T00:44:19.955Z,87.35
2022-10-26T00:45:19.939Z,87.59
2022-10-26T00:46:19.933Z,87.79
2022-10-26T00:47:19.921Z,87.29
2022-10-26T00:48:19.941Z,87.38
2022-10-26T00:50:19.901Z,87.49
2022-10-26T00:51:19.879Z,87.38
2022-10-26T00:52:19.868Z,87.38
2022-10-26T00:53:19.876Z,87.29
2022-10-26T00:54:19.846Z,87.49
2022-10-26T00:55:19.837Z,87.59
2022-10-26T00:56:19.849Z,87.38
2022-10-26T00:57:19.826Z,87.18
2022-10-26T00:58:19.796Z,87.18
2022-10-26T00:59:19.790Z,87.79
2022-10-26T01:00:19.794Z,88.00
2022-10-26T01:01:19.833Z,88.00
2022-10-26T01:02:19.761Z,88.10
2022-10-26T01:03:19.766Z,87.29
2022-10-26T01:04:19.727Z,87.38
2022-10-26T01:05:19.719Z,87.29
2022-10-26T01:06:19.730Z,87.29
2022-10-26T01:07:19.712Z,87.59
2022-10-26T01:08:19.691Z,87.29
2022-10-26T01:09:19.699Z,87.38
2022-10-26T01:10:19.675Z,87.63
2022-10-26T01:11:19.659Z,87.23
2022-10-26T01:12:19.665Z,87.63
2022-10-26T01:13:19.676Z,87.38
2022-10-26T01:14:19.633Z,87.02
2022-10-26T01:15:19.618Z,87.23
2022-10-26T01:16:19.621Z,87.12
2022-10-26T01:17:19.595Z,87.23
2022-10-26T01:18:19.584Z,87.02
2022-10-26T01:19:19.570Z,87.12
2022-10-26T01:20:19.553Z,87.63
2022-10-26T01:21:19.543Z,87.43
2022-10-26T01:22:19.545Z,87.43
2022-10-26T01:23:19.521Z,86.98
2022-10-26T01:24:19.526Z,87.12
2022-10-26T01:25:19.507Z,87.43
2022-10-26T01:26:19.490Z,87.02
2022-10-26T01:27:19.486Z,86.92
2022-10-26T01:28:19.471Z,87.12
2022-10-26T01:29:19.466Z,86.82
2022-10-26T01:30:19.472Z,86.82
2022-10-26T01:31:19.449Z,87.43
2022-10-26T01:32:19.432Z,87.23
2022-10-26T01:33:19.421Z,87.02
2022-10-26T01:34:19.413Z,87.06
2022-10-26T01:35:19.420Z,87.73
2022-10-26T01:36:19.524Z,87.63
2022-10-26T01:37:19.385Z,87.43
2022-10-26T01:38:19.367Z,87.57
2022-10-26T01:39:19.355Z,87.43
2022-10-26T01:40:19.345Z,87.53
2022-10-26T01:41:19.346Z,88.04
2022-10-26T01:42:19.319Z,87.73
2022-10-26T01:43:19.301Z,88.14
2022-10-26T01:44:19.287Z,87.94
2022-10-26T01:45:19.301Z,87.84
2022-10-26T01:47:19.277Z,87.47
2022-10-26T01:48:19.251Z,87.57
2022-10-26T01:49:19.243Z,87.26
2022-10-26T01:50:19.227Z,87.12
2022-10-26T01:51:19.221Z,87.06
2022-10-26T01:52:19.229Z,87.47
2022-10-26T01:53:19.200Z,87.47
2022-10-26T01:54:19.180Z,87.47
2022-10-26T01:55:19.168Z,87.06
2022-10-26T01:56:19.161Z,87.67
2022-10-26T01:57:19.166Z,87.16
2022-10-26T01:58:19.147Z,87.47
2022-10-26T01:59:19.143Z,87.88
2022-10-26T02:00:19.115Z,87.98
2022-10-26T02:01:19.178Z,87.67
2022-10-26T02:02:19.091Z,87.67
2022-10-26T02:03:19.146Z,87.67
2022-10-26T02:04:19.194Z,87.67
2022-10-26T02:05:19.073Z,87.67
2022-10-26T02:06:19.058Z,87.16
2022-10-26T02:07:19.041Z,87.67
2022-10-26T02:08:19.035Z,87.47
2022-10-26T02:09:19.033Z,87.57
2022-10-26T02:10:19.028Z,86.86
2022-10-26T02:11:18.995Z,87.26
2022-10-26T02:12:18.993Z,87.67
2022-10-26T02:13:18.981Z,87.37
2022-10-26T02:14:19.007Z,88.18
2022-10-26T02:15:18.994Z,87.77
2022-10-26T02:16:18.948Z,87.77
2022-10-26T02:17:18.949Z,87.26
2022-10-26T02:18:18.915Z,87.30
2022-10-26T02:19:18.911Z,87.71
2022-10-26T02:20:18.906Z,88.18
2022-10-26T02:21:18.902Z,88.18
2022-10-26T02:22:18.897Z,88.08
2022-10-26T02:23:18.862Z,87.77
2022-10-26T02:24:18.856Z,88.02
2022-10-26T02:25:18.845Z,88.59
2022-10-26T02:26:18.835Z,88.63
2022-10-26T02:27:18.822Z,88.59
2022-10-26T02:28:18.826Z,88.39
2022-10-26T02:29:18.806Z,88.08
2022-10-26T02:30:18.790Z,87.77
2022-10-26T02:31:18.775Z,88.08
2022-10-26T02:32:18.765Z,87.67
2022-10-26T02:33:18.792Z,87.37
2022-10-26T02:34:18.743Z,88.28
2022-10-26T02:35:18.730Z,88.39
2022-10-26T02:36:18.719Z,88.59
2022-10-26T02:37:18.719Z,88.59
2022-10-26T02:38:18.700Z,88.39
2022-10-26T02:39:18.707Z,88.69
2022-10-26T02:40:18.693Z,88.90
2022-10-26T02:41:18.662Z,88.90
2022-10-26T02:42:18.670Z,88.63
2022-10-26T02:43:18.695Z,88.53
2022-10-26T02:44:18.650Z,88.90
2022-10-26T02:45:18.647Z,88.43
2022-10-26T02:46:18.620Z,88.53
2022-10-26T02:47:18.615Z,88.73
2022-10-26T02:48:18.600Z,88.84
2022-10-26T02:49:18.612Z,88.39
2022-10-26T02:50:18.573Z,89.04
2022-10-26T02:51:18.567Z,88.90
2022-10-26T02:52:18.582Z,88.79
2022-10-26T02:53:18.536Z,88.63
2022-10-26T02:54:18.523Z,88.84
2022-10-26T02:55:18.550Z,88.93
2022-10-26T02:56:18.501Z,89.04
2022-10-26T02:57:18.500Z,88.84
2022-10-26T02:58:18.478Z,88.79
2022-10-26T02:59:18.476Z,88.39
2022-10-26T03:00:18.489Z,88.63
2022-10-26T03:01:18.526Z,88.73
2022-10-26T03:02:18.507Z,88.73
2022-10-26T03:03:18.442Z,88.93
2022-10-26T03:04:18.451Z,88.43
2022-10-26T03:05:18.422Z,88.53
2022-10-26T03:06:18.403Z,89.04
2022-10-26T03:07:18.398Z,89.04
2022-10-26T03:08:18.441Z,88.84
2022-10-26T03:09:20.175Z,89.14
2022-10-26T03:10:18.362Z,89.14
2022-10-26T03:11:18.347Z,88.93
2022-10-26T03:12:18.339Z,89.14
2022-10-26T03:13:18.312Z,89.34
2022-10-26T03:14:18.319Z,89.34
2022-10-26T03:15:18.329Z,89.14
2022-10-26T03:16:18.293Z,89.08
2022-10-26T03:17:18.282Z,89.45
2022-10-26T03:18:18.278Z,89.59
2022-10-26T03:19:18.248Z,89.28
2022-10-26T03:20:18.253Z,89.39
2022-10-26T03:21:18.267Z,89.04
2022-10-26T03:22:18.221Z,89.39
2022-10-26T03:23:18.214Z,89.49
2022-10-26T03:24:18.226Z,89.59
2022-10-26T03:25:18.184Z,88.47
2022-10-26T03:26:18.205Z,89.59
2022-10-26T03:27:18.163Z,89.69
2022-10-26T03:28:18.163Z,89.90
2022-10-26T03:29:18.146Z,89.90
2022-10-26T03:30:18.146Z,90.00
2022-10-26T03:31:18.128Z,89.49
2022-10-26T03:32:18.119Z,90.00
2022-10-26T03:33:18.174Z,89.90
2022-10-26T03:34:18.091Z,89.08
2022-10-26T03:35:18.111Z,89.28
2022-10-26T03:36:18.066Z,89.18
2022-10-26T03:37:18.065Z,88.67
2022-10-26T03:38:18.055Z,89.18
2022-10-26T03:39:18.045Z,89.65
2022-10-26T03:40:18.042Z,89.08
2022-10-26T03:41:18.040Z,89.69
2022-10-26T03:42:18.028Z,89.90
2022-10-26T03:43:17.988Z,89.28
2022-10-26T03:44:17.980Z,89.28
2022-10-26T03:45:17.966Z,88.88
2022-10-26T03:46:17.952Z,89.08
2022-10-26T03:47:17.950Z,89.18
2022-10-26T03:48:17.945Z,89.18
2022-10-26T03:49:17.916Z,89.18
2022-10-26T03:50:17.928Z,89.18
2022-10-26T03:51:17.921Z,88.88
2022-10-26T03:52:17.918Z,88.98
2022-10-26T03:53:17.894Z,88.88
2022-10-26T03:54:17.870Z,88.98
2022-10-26T03:55:17.860Z,88.84
2022-10-26T03:56:17.858Z,89.18
2022-10-26T03:57:17.847Z,89.25
2022-10-26T03:58:17.905Z,88.98
2022-10-26T03:59:17.832Z,88.67
2022-10-26T04:00:17.813Z,88.98
2022-10-26T04:01:17.868Z,89.25
2022-10-26T04:02:17.803Z,89.08
2022-10-26T04:03:17.781Z,89.28
2022-10-26T04:04:17.808Z,89.14
2022-10-26T04:05:17.757Z,89.08
2022-10-26T04:06:17.741Z,88.57
2022-10-26T04:07:17.728Z,88.57
2022-10-26T04:08:17.729Z,88.88
2022-10-26T04:09:17.731Z,88.98
2022-10-26T04:10:17.729Z,89.14
2022-10-26T04:11:17.710Z,89.18
2022-10-26T04:12:17.688Z,88.98
2022-10-26T04:13:17.663Z,89.28
2022-10-26T04:14:17.677Z,88.88
2022-10-26T04:15:17.667Z,88.98
2022-10-26T04:16:17.642Z,88.98
2022-10-26T04:17:17.629Z,89.18
2022-10-26T04:18:17.620Z,89.18
2022-10-26T04:19:17.623Z,89.18
2022-10-26T04:20:17.596Z,88.98
2022-10-26T04:21:17.587Z,89.08
2022-10-26T04:22:17.580Z,88.98
2022-10-26T04:23:17.612Z,89.18
2022-10-26T04:24:17.545Z,88.98
2022-10-26T04:25:17.561Z,88.98
2022-10-26T04:26:17.529Z,88.98
2022-10-26T04:27:17.523Z,89.18
2022-10-26T04:28:17.501Z,89.18
2022-10-26T04:29:17.515Z,89.18
2022-10-26T04:30:17.487Z,88.92
2022-10-26T04:31:17.480Z,89.02
2022-10-26T04:32:17.524Z,89.94
2022-10-26T04:33:17.460Z,89.73
2022-10-26T04:34:17.450Z,90.04
2022-10-26T04:35:17.461Z,90.04
2022-10-26T04:36:17.428Z,90.25
2022-10-26T04:37:17.409Z,89.94
2022-10-26T04:38:17.421Z,89.98
2022-10-26T04:39:17.393Z,90.19
2022-10-26T04:40:17.386Z,90.49
2022-10-26T04:41:17.384Z,90.43
2022-10-26T04:42:17.351Z,89.92
2022-10-26T04:43:17.360Z,90.19
2022-10-26T04:44:17.346Z,90.39
2022-10-26T04:45:17.327Z,91.11
2022-10-26T04:46:17.316Z,91.35
2022-10-26T04:47:17.308Z,90.94
2022-10-26T04:48:17.330Z,90.70
2022-10-26T04:49:17.270Z,90.84
2022-10-26T04:50:17.272Z,90.64
2022-10-26T04:51:17.273Z,90.74
2022-10-26T04:52:17.268Z,90.74
2022-10-26T04:53:17.250Z,91.46
2022-10-26T04:54:17.229Z,91.35
2022-10-26T04:55:17.215Z,91.35
2022-10-26T04:56:17.205Z,90.49
2022-10-26T04:57:17.205Z,90.49
2022-10-26T04:58:17.206Z,90.49
2022-10-26T04:59:17.173Z,90.53
2022-10-26T05:00:17.163Z,90.70
2022-10-26T05:01:17.314Z,89.78
2022-10-26T05:02:17.235Z,90.08
2022-10-26T05:03:17.126Z,90.39
2022-10-26T05:04:17.128Z,90.84
2022-10-26T05:05:17.104Z,90.74
2022-10-26T05:06:17.105Z,90.39
2022-10-26T05:07:17.082Z,90.29
2022-10-26T05:08:17.070Z,89.98
2022-10-26T05:09:17.061Z,89.98
2022-10-26T05:10:17.056Z,89.78
2022-10-26T05:11:17.054Z,89.82
2022-10-26T05:12:17.020Z,89.88
2022-10-26T05:13:17.175Z,89.78
2022-10-26T05:14:16.992Z,89.98
2022-10-26T05:15:16.995Z,89.82
2022-10-26T05:16:17.004Z,89.06
2022-10-26T05:17:16.979Z,89.98
2022-10-26T05:18:16.956Z,88.96
2022-10-26T05:19:16.944Z,89.78
2022-10-26T05:20:16.938Z,88.76
2022-10-26T05:21:16.937Z,89.17
2022-10-26T05:22:16.913Z,89.11
2022-10-26T05:23:16.923Z,89.58
2022-10-26T05:24:16.896Z,89.06
2022-10-26T05:25:16.881Z,89.92
2022-10-26T05:26:16.882Z,89.82
2022-10-26T05:27:16.864Z,90.12
2022-10-26T05:28:16.839Z,89.82
2022-10-26T05:29:16.859Z,89.92
2022-10-26T05:30:16.835Z,90.02
2022-10-26T05:31:16.816Z,89.72
2022-10-26T05:32:16.798Z,89.72
2022-10-26T05:33:16.796Z,89.78
2022-10-26T05:34:16.802Z,89.92
2022-10-26T05:35:16.768Z,89.72
2022-10-26T05:36:16.752Z,90.08
2022-10-26T05:37:16.749Z,90.33
2022-10-26T05:38:16.830Z,89.88
2022-10-26T05:39:16.725Z,89.47
2022-10-26T05:40:16.727Z,89.17
2022-10-26T05:41:16.722Z,89.67
2022-10-26T05:42:16.710Z,89.37
2022-10-26T05:43:16.686Z,89.20
2022-10-26T05:44:16.672Z,89.41
2022-10-26T05:45:16.689Z,88.96
2022-10-26T05:46:16.652Z,88.96
2022-10-26T05:47:16.650Z,89.17
2022-10-26T05:48:16.632Z,89.11
2022-10-26T05:49:16.623Z,89.26
2022-10-26T05:50:16.608Z,89.26
2022-10-26T05:51:16.599Z,89.31
2022-10-26T05:52:16.598Z,89.20
2022-10-26T05:53:16.578Z,88.96
2022-10-26T05:54:16.564Z,89.00
2022-10-26T05:55:16.552Z,89.26
2022-10-26T05:56:16.540Z,88.96
2022-10-26T05:57:16.558Z,89.47
2022-10-26T05:58:16.532Z,89.26
2022-10-26T05:59:16.514Z,88.85
2022-10-26T06:00:16.491Z,89.17
2022-10-26T06:01:16.654Z,89.06
2022-10-26T06:02:16.655Z,89.06
2022-10-26T06:03:16.494Z,89.31
2022-10-26T06:04:16.460Z,89.31
2022-10-26T06:05:16.461Z,89.06
2022-10-26T06:06:16.432Z,89.17
2022-10-26T06:07:16.432Z,89.26
2022-10-26T06:08:16.401Z,89.26
2022-10-26T06:09:16.399Z,89.37
2022-10-26T06:10:16.405Z,89.37
2022-10-26T06:11:16.375Z,89.06
2022-10-26T06:12:19.321Z,89.26
2022-10-26T06:13:16.373Z,89.17
2022-10-26T06:14:16.350Z,89.26
2022-10-26T06:15:16.330Z,89.17
2022-10-26T06:16:16.313Z,89.47
2022-10-26T06:17:16.322Z,89.58
2022-10-26T06:18:16.302Z,89.06
2022-10-26T06:19:16.295Z,88.65
2022-10-26T06:20:16.295Z,88.85
2022-10-26T06:21:16.266Z,89.06
2022-10-26T06:22:16.260Z,88.82
2022-10-26T06:23:16.247Z,88.71
2022-10-26T06:24:16.238Z,89.02
2022-10-26T06:25:16.239Z,88.55
2022-10-26T06:26:16.210Z,88.04
2022-10-26T06:27:18.706Z,88.65
2022-10-26T06:28:16.185Z,88.82
2022-10-26T06:29:16.180Z,88.55
2022-10-26T06:30:16.173Z,88.55
2022-10-26T06:31:16.170Z,88.10
2022-10-26T06:32:16.159Z,87.79
2022-10-26T06:33:28.948Z,87.84
2022-10-26T06:34:17.164Z,87.79
2022-10-26T06:35:16.122Z,88.35
2022-10-26T06:36:16.109Z,87.79
2022-10-26T06:37:16.094Z,87.84
2022-10-26T06:38:16.083Z,87.53
2022-10-26T06:39:16.089Z,87.49
2022-10-26T06:40:16.053Z,87.84
2022-10-26T06:41:16.068Z,87.49
2022-10-26T06:42:16.047Z,87.63
2022-10-26T06:43:16.022Z,87.23
2022-10-26T06:44:16.019Z,87.38
2022-10-26T06:45:16.006Z,87.49
2022-10-26T06:46:16.019Z,87.18
2022-10-26T06:47:19.739Z,87.29
2022-10-26T06:48:15.975Z,87.08
2022-10-26T06:49:15.973Z,86.88
2022-10-26T06:50:15.967Z,86.82
2022-10-26T06:51:15.944Z,86.88
2022-10-26T06:52:15.944Z,88.41
2022-10-26T06:53:15.920Z,88.41
2022-10-26T06:54:15.908Z,88.71
2022-10-26T06:55:15.910Z,89.23
2022-10-26T06:56:15.908Z,90.20
2022-10-26T06:57:15.871Z,89.90
2022-10-26T06:58:15.879Z,89.49
2022-10-26T06:59:15.858Z,89.69
2022-10-26T07:00:15.858Z,88.93
2022-10-26T07:01:15.919Z,88.63
2022-10-26T07:02:15.889Z,88.93
2022-10-26T07:03:15.833Z,88.53
2022-10-26T07:04:15.789Z,88.53
2022-10-26T07:05:15.797Z,88.43
2022-10-26T07:06:15.787Z,88.73
2022-10-26T07:07:15.766Z,88.18
2022-10-26T07:08:15.760Z,87.30
2022-10-26T07:09:15.792Z,87.10
2022-10-26T07:10:15.749Z,87.10
2022-10-26T07:11:15.720Z,87.47
2022-10-26T07:12:15.714Z,88.18
2022-10-26T07:13:15.713Z,87.98
2022-10-26T07:14:15.687Z,88.14
2022-10-26T07:15:15.686Z,87.12
2022-10-26T07:16:15.673Z,86.92
2022-10-26T07:17:15.656Z,86.21
2022-10-26T07:18:15.639Z,85.28
2022-10-26T07:19:15.632Z,85.49
2022-10-26T07:20:15.627Z,85.13
2022-10-26T07:21:15.634Z,85.22
2022-10-26T07:22:15.596Z,85.43
2022-10-26T07:23:15.597Z,85.33
2022-10-26T07:24:15.587Z,85.33
2022-10-26T07:25:15.603Z,85.74
2022-10-26T07:26:15.557Z,86.55
2022-10-26T07:27:15.550Z,85.63
2022-10-26T07:28:15.533Z,85.74
2022-10-26T07:29:15.526Z,85.94
2022-10-26T07:30:15.528Z,86.35
2022-10-26T07:31:15.514Z,86.15
2022-10-26T07:32:15.494Z,86.15
2022-10-26T07:33:15.485Z,85.90
2022-10-26T07:34:15.474Z,86.21
2022-10-26T07:35:15.475Z,86.41
2022-10-26T07:36:15.467Z,85.08
2022-10-26T07:37:15.453Z,85.60
2022-10-26T07:38:15.434Z,85.08
2022-10-26T07:39:15.411Z,85.19
2022-10-26T07:40:15.505Z,85.39
2022-10-26T07:41:15.417Z,85.60
2022-10-26T07:42:15.401Z,85.49
2022-10-26T07:43:15.378Z,85.39
2022-10-26T07:44:15.356Z,85.14
2022-10-26T07:45:15.349Z,85.35
2022-10-26T07:46:15.356Z,85.35
2022-10-26T07:47:15.346Z,85.45
2022-10-26T07:48:15.322Z,84.84
2022-10-26T07:49:19.133Z,85.25
2022-10-26T07:50:15.302Z,84.80
2022-10-26T07:51:15.289Z,84.59
2022-10-26T07:52:15.279Z,84.80
2022-10-26T07:53:15.294Z,84.50
2022-10-26T07:54:15.252Z,84.39
2022-10-26T07:55:15.237Z,84.97
2022-10-26T07:56:15.233Z,83.74
2022-10-26T07:57:15.211Z,84.05
2022-10-26T07:58:15.225Z,83.64
2022-10-26T07:59:15.192Z,83.84
2022-10-26T08:00:15.182Z,83.81
2022-10-26T08:01:15.266Z,83.74
2022-10-26T08:02:15.169Z,83.81
2022-10-26T08:03:15.148Z,83.29
2022-10-26T08:04:15.154Z,83.29
2022-10-26T08:05:15.124Z,82.68
2022-10-26T08:06:15.125Z,83.06
2022-10-26T08:07:15.103Z,82.65
2022-10-26T08:08:15.107Z,82.54
2022-10-26T08:09:15.110Z,82.34
2022-10-26T08:10:15.091Z,82.14
2022-10-26T08:11:15.083Z,82.45
2022-10-26T08:12:15.061Z,82.54
2022-10-26T08:13:15.037Z,82.10
2022-10-26T08:14:15.053Z,82.61
2022-10-26T08:15:15.025Z,82.78
2022-10-26T08:16:15.008Z,81.92
2022-10-26T08:17:14.999Z,80.57
2022-10-26T08:18:14.991Z,78.86
2022-10-26T08:19:15.004Z,76.39
2022-10-26T08:20:14.980Z,71.67
2022-10-26T08:21:21.755Z,68.98
2022-10-26T08:22:15.968Z,65.54
2022-10-26T08:23:14.932Z,62.61
2022-10-26T08:24:14.929Z,60.39
2022-10-26T08:25:17.580Z,58.01
2022-10-26T08:26:15.905Z,55.31
2022-10-26T08:27:14.887Z,54.26
2022-10-26T08:28:15.108Z,52.89
2022-10-26T08:29:14.865Z,51.15
2022-10-26T08:30:14.878Z,50.48
2022-10-26T08:31:14.873Z,49.54
2022-10-26T08:32:14.836Z,48.21
2022-10-26T08:33:14.821Z,47.07
2022-10-26T08:34:14.821Z,45.94
2022-10-26T08:35:14.806Z,45.13
2022-10-26T08:36:14.813Z,44.29
2022-10-26T08:37:14.793Z,43.29
2022-10-26T08:38:14.768Z,43.07
2022-10-26T08:39:14.770Z,42.36
2022-10-26T08:40:14.749Z,42.38
2022-10-26T08:41:14.754Z,42.87
2022-10-26T08:42:14.772Z,42.28
2022-10-26T08:43:14.750Z,42.77
2022-10-26T08:44:14.707Z,43.13
2022-10-26T08:45:14.704Z,44.16
2022-10-26T08:46:14.723Z,44.70
2022-10-26T08:47:14.811Z,46.86
2022-10-26T08:48:14.683Z,48.14
2022-10-26T08:49:14.678Z,50.93
2022-10-26T08:50:14.682Z,51.70
2022-10-26T08:51:14.725Z,52.72
2022-10-26T08:52:14.646Z,52.81
2022-10-26T08:53:15.155Z,52.89
2022-10-26T08:54:14.612Z,52.81
2022-10-26T08:55:14.601Z,53.34
2022-10-26T08:56:14.601Z,54.59
2022-10-26T08:57:14.589Z,55.44
2022-10-26T08:58:14.566Z,56.79
2022-10-26T08:59:14.559Z,57.22
2022-10-26T09:00:14.539Z,58.28
2022-10-26T09:01:14.631Z,58.70
2022-10-26T09:02:14.638Z,59.00
2022-10-26T09:03:14.519Z,59.33
2022-10-26T09:04:14.536Z,60.27
2022-10-26T09:05:14.515Z,60.89
2022-10-26T09:06:14.502Z,62.36
2022-10-26T09:07:14.507Z,62.46
2022-10-26T09:08:14.475Z,63.09
2022-10-26T09:09:14.470Z,64.53
2022-10-26T09:10:14.527Z,64.46
2022-10-26T09:11:14.439Z,64.76
2022-10-26T09:12:14.489Z,65.19
2022-10-26T09:13:14.430Z,65.80
2022-10-26T09:14:14.431Z,65.93
2022-10-26T09:15:14.407Z,67.17
2022-10-26T09:16:14.373Z,67.88
2022-10-26T09:17:14.392Z,67.88
2022-10-26T09:18:14.387Z,67.91
2022-10-26T09:19:14.352Z,68.34
2022-10-26T09:20:14.407Z,67.94
2022-10-26T09:21:14.326Z,68.85
2022-10-26T09:22:14.413Z,68.85
2022-10-26T09:23:14.413Z,68.74
2022-10-26T09:24:14.333Z,68.54
2022-10-26T09:25:14.294Z,68.74
2022-10-26T09:26:14.377Z,68.85
2022-10-26T09:27:14.298Z,69.35
2022-10-26T09:28:14.274Z,69.79
2022-10-26T09:29:14.278Z,69.35
2022-10-26T09:30:14.273Z,69.21
2022-10-26T09:31:14.291Z,68.78
2022-10-26T09:32:14.220Z,68.98
2022-10-26T09:33:14.219Z,68.44
2022-10-26T09:34:14.205Z,67.61
2022-10-26T09:35:14.289Z,66.97
2022-10-26T09:36:16.811Z,66.67
2022-10-26T09:37:14.216Z,65.97
2022-10-26T09:38:14.227Z,65.87
2022-10-26T09:39:14.164Z,66.74
2022-10-26T09:40:14.216Z,67.14
2022-10-26T09:41:14.283Z,66.83
2022-10-26T09:42:14.161Z,67.94
2022-10-26T09:43:14.147Z,67.97
2022-10-26T09:44:14.214Z,67.77
2022-10-26T09:45:14.082Z,68.28
2022-10-26T09:46:14.189Z,68.08
2022-10-26T09:47:14.086Z,68.55
2022-10-26T09:48:14.061Z,67.97
2022-10-26T09:49:14.007Z,67.97
2022-10-26T09:50:14.057Z,68.48
2022-10-26T09:51:14.043Z,68.78
2022-10-26T09:52:14.245Z,68.98
2022-10-26T09:53:14.009Z,68.81
2022-10-26T09:54:13.980Z,69.21
2022-10-26T09:55:14.064Z,69.72
2022-10-26T09:56:13.970Z,69.42
2022-10-26T09:57:13.971Z,69.95
2022-10-26T09:58:13.944Z,70.09
2022-10-26T09:59:13.939Z,70.29
2022-10-26T10:00:13.933Z,71.03
2022-10-26T10:01:13.976Z,70.93
2022-10-26T10:02:14.109Z,71.64
2022-10-26T10:03:13.904Z,71.73
2022-10-26T10:04:13.944Z,71.64
2022-10-26T10:05:19.435Z,70.89
2022-10-26T10:06:14.882Z,70.69
2022-10-26T10:07:13.822Z,71.33
2022-10-26T10:08:13.827Z,70.83
2022-10-26T10:09:13.826Z,71.44
2022-10-26T10:10:13.879Z,71.33
2022-10-26T10:11:17.707Z,71.33
2022-10-26T10:12:13.863Z,71.33
2022-10-26T10:13:13.859Z,71.44
2022-10-26T10:14:13.826Z,71.84
2022-10-26T10:15:13.776Z,71.53
2022-10-26T10:16:13.748Z,71.13
2022-10-26T10:17:13.775Z,71.60
2022-10-26T10:18:13.803Z,71.53
2022-10-26T10:19:13.741Z,71.00
2022-10-26T10:20:13.737Z,71.20
2022-10-26T10:21:13.728Z,70.69
2022-10-26T10:22:13.698Z,70.79
2022-10-26T10:23:13.727Z,70.86
2022-10-26T10:24:13.738Z,70.79
2022-10-26T10:25:13.617Z,71.44
2022-10-26T10:26:13.654Z,72.34
2022-10-26T10:27:13.623Z,72.71
2022-10-26T10:28:13.686Z,71.60
2022-10-26T10:29:13.580Z,71.47
2022-10-26T10:30:13.585Z,71.26
2022-10-26T10:31:13.581Z,70.86
2022-10-26T10:32:13.603Z,71.06
2022-10-26T10:33:13.606Z,70.76
2022-10-26T10:34:13.609Z,70.86
2022-10-26T10:35:13.580Z,71.06
2022-10-26T10:36:13.495Z,70.86
2022-10-26T10:37:13.555Z,70.53
2022-10-26T10:38:13.575Z,69.75
2022-10-26T10:39:13.535Z,69.82
2022-10-26T10:40:15.377Z,69.95
2022-10-26T10:41:13.506Z,70.76
2022-10-26T10:42:13.504Z,71.23
2022-10-26T10:43:13.428Z,70.66
2022-10-26T10:44:13.441Z,70.97
2022-10-26T10:45:13.459Z,71.17
2022-10-26T10:46:13.385Z,71.06
2022-10-26T10:47:13.423Z,71.10
2022-10-26T10:48:13.425Z,71.10
2022-10-26T10:49:13.484Z,71.80
2022-10-26T10:50:13.381Z,72.34
2022-10-26T10:51:13.428Z,72.00
2022-10-26T10:52:13.417Z,72.54
2022-10-26T10:53:13.328Z,72.54
2022-10-26T10:54:13.293Z,71.80
2022-10-26T10:55:13.355Z,72.04
2022-10-26T10:56:13.321Z,72.64
2022-10-26T10:57:13.293Z,72.85
2022-10-26T10:58:13.350Z,72.85
2022-10-26T10:59:13.287Z,72.71
2022-10-26T11:00:13.273Z,72.61
2022-10-26T11:01:13.360Z,72.51
2022-10-26T11:02:13.464Z,71.33
2022-10-26T11:03:13.295Z,71.50
2022-10-26T11:05:13.315Z,71.13
2022-10-26T11:06:13.295Z,71.70
2022-10-26T11:07:13.201Z,72.20
2022-10-26T11:08:13.206Z,70.89
2022-10-26T11:09:13.190Z,71.06
2022-10-26T11:10:13.150Z,71.47
2022-10-26T11:11:13.151Z,71.70
2022-10-26T11:12:13.132Z,71.26
2022-10-26T11:13:13.087Z,70.76
2022-10-26T11:14:13.076Z,71.23
2022-10-26T11:15:13.066Z,70.83
2022-10-26T11:16:13.083Z,69.62
2022-10-26T11:17:13.083Z,69.99
2022-10-26T11:18:13.027Z,68.51
2022-10-26T11:19:13.011Z,68.51
2022-10-26T11:20:15.102Z,67.77
2022-10-26T11:21:13.019Z,67.77
2022-10-26T11:22:12.986Z,68.48
2022-10-26T11:23:13.114Z,67.68
2022-10-26T11:24:12.975Z,67.77
2022-10-26T11:25:12.949Z,67.07
2022-10-26T11:26:12.960Z,67.07
2022-10-26T11:27:12.959Z,67.17
2022-10-26T11:28:12.925Z,66.97
2022-10-26T11:29:12.967Z,67.03
2022-10-26T11:30:12.895Z,66.56
2022-10-26T11:31:12.879Z,66.47
2022-10-26T11:32:12.874Z,66.67
2022-10-26T11:33:12.883Z,67.07
2022-10-26T11:34:12.867Z,67.14
2022-10-26T11:35:12.849Z,66.94
2022-10-26T11:36:12.830Z,66.97
2022-10-26T11:37:12.838Z,66.94
2022-10-26T11:38:12.823Z,67.24
2022-10-26T11:39:12.799Z,67.44
2022-10-26T11:40:12.958Z,66.94
2022-10-26T11:41:12.774Z,66.63
2022-10-26T11:42:12.793Z,66.74
2022-10-26T11:43:12.752Z,66.74
2022-10-26T11:44:12.759Z,67.00
2022-10-26T11:45:12.733Z,67.11
2022-10-26T11:46:15.182Z,67.31
2022-10-26T11:47:12.716Z,67.07
2022-10-26T11:48:12.710Z,66.67
2022-10-26T11:49:12.693Z,66.67
2022-10-26T11:50:16.263Z,67.58
2022-10-26T11:51:12.669Z,67.81
2022-10-26T11:52:12.671Z,67.91
2022-10-26T11:53:12.658Z,67.61
2022-10-26T11:54:12.674Z,68.55
2022-10-26T11:55:12.656Z,68.95
2022-10-26T11:56:12.605Z,69.15
2022-10-26T11:57:12.607Z,68.55
2022-10-26T11:58:12.594Z,68.95
2022-10-26T11:59:12.577Z,68.65
2022-10-26T12:00:12.560Z,67.74
2022-10-26T12:01:12.631Z,68.15
2022-10-26T12:02:12.550Z,68.35
2022-10-26T12:03:12.530Z,67.84
2022-10-26T12:04:12.535Z,67.44
2022-10-26T12:05:12.508Z,66.53
2022-10-26T12:06:12.521Z,66.30
2022-10-26T12:07:12.504Z,66.43
2022-10-26T12:08:12.484Z,66.40
2022-10-26T12:09:12.493Z,66.91
2022-10-26T12:10:12.457Z,66.77
2022-10-26T12:11:12.468Z,66.67
2022-10-26T12:12:12.449Z,67.47
2022-10-26T12:13:12.432Z,68.18
2022-10-26T12:14:12.445Z,68.18
2022-10-26T12:15:12.421Z,68.18
2022-10-26T12:16:12.425Z,67.78
2022-10-26T12:17:12.383Z,66.87
2022-10-26T12:18:12.395Z,67.47
2022-10-26T12:19:12.383Z,67.88
2022-10-26T12:20:12.352Z,67.65
2022-10-26T12:21:12.378Z,66.37
2022-10-26T12:22:12.330Z,66.87
2022-10-26T12:23:19.014Z,67.04
2022-10-26T12:24:13.332Z,66.14
2022-10-26T12:25:14.982Z,65.73
2022-10-26T12:26:12.310Z,65.64
2022-10-26T12:27:12.351Z,65.84
2022-10-26T12:28:12.280Z,65.84
2022-10-26T12:29:12.264Z,66.24
2022-10-26T12:30:12.242Z,65.84
2022-10-26T12:31:12.251Z,66.14
2022-10-26T12:32:12.247Z,66.14
2022-10-26T12:33:12.214Z,66.44
2022-10-26T12:34:12.197Z,66.94
2022-10-26T12:35:12.187Z,66.84
2022-10-26T12:36:12.182Z,66.84
2022-10-26T12:37:12.178Z,67.04
2022-10-26T12:38:12.152Z,67.04
2022-10-26T12:39:12.157Z,67.85
2022-10-26T12:40:12.125Z,67.78
2022-10-26T12:41:12.130Z,67.78
2022-10-26T12:42:12.134Z,68.08
2022-10-26T12:43:12.095Z,67.98
2022-10-26T12:44:12.092Z,67.78
2022-10-26T12:45:12.065Z,68.28
2022-10-26T12:46:12.064Z,67.94
2022-10-26T12:47:12.052Z,67.74
2022-10-26T12:48:27.551Z,67.55
2022-10-26T12:49:13.035Z,67.65
2022-10-26T12:50:12.014Z,67.24
2022-10-26T12:51:12.003Z,66.54
2022-10-26T12:52:11.998Z,67.04
2022-10-26T12:53:11.997Z,67.04
2022-10-26T12:54:12.054Z,67.65
2022-10-26T12:55:11.974Z,66.91